KLRU/LRU METAR and TAF weather

Enter ICAO airport designator
Station Type Date Time Source
KLRU METAR 2020/12/05 05:35 UTC NOAA

KLRU 050535Z AUTO 00000KT 10SM CLR M01/M16 A3026 RMK AO2 T10081160


Station Type Date Time Source
KLRU Decoded METAR 2020/12/05 05:35 UTC NOAA

Las Cruces, Las Cruces International Airport, NM, United States (KLRU) 32-17-22N 106-55-19W
Dec 05, 2020 - 12:35 AM EST / 2020.12.05 0535 UTC
Wind: Calm:0
Visibility: 10 mile(s):0
Sky conditions: clear
Temperature: 30.6 F (-0.8 C)
Dew Point: 3.2 F (-16.0 C)
Relative Humidity: 30%
Pressure (altimeter): 30.26 in. Hg (1024 hPa)
ob: KLRU 050535Z AUTO 00000KT 10SM CLR M01/M16 A3026 RMK AO2 T10081160
cycle: 5

Station Type Date Time Source
KLRU TAF 2020/12/05 06:30 UTC NOAA

TAF KLRU 050527Z 0506/0606 33004KT P6SM SKC
FM051800 32006KT P6SM SKC

Example: see airport list